Terminal Aerodrome Forecast
Issued by NWS Louisville, KY

Home | Current Version | Previous Version | Text Only | Print | Product List | Glossary On
Versions: 1 2 3 4 5 6 7 8 9 10 11 12 13 14 15 16 17 18 19 20 21 22 23 24
000
FTUS43 KLMK 231000 AAA
TAFSDF
TAF AMD
KSDF 231021Z 2310/2412 04005KT P6SM BKN027
     FM231900 01005KT P6SM VCSH BKN035
     FM240500 29005KT P6SM BKN040=

USA.gov is the U.S. government's official web portal to all federal, state and local government web resources and services.